Time;durP1;ratioP1;P1;durP2;ratioP2;P2;SDS_P1;SDS_P2;PMS_P1;PMS_P2;Temp;Humidity;BMP_temperature;BMP_pressure;BME280_temperature;BME280_humidity;BME280_pressure;Samples;Min_cycle;Max_cycle;Signal;HPM_P1;HPM_P2
2022/01/30 00:00:19;;;;;;;0.00;0.00;;;8.50;99.90;;;;;;4968732;28;20022;-76
2022/01/30 00:02:45;;;;;;;0.00;0.00;;;8.50;99.90;;;;;;4969562;28;20039;-77
2022/01/30 00:05:11;;;;;;;0.00;0.00;;;8.50;99.90;;;;;;4969788;28;20022;-76
2022/01/30 00:07:36;;;;;;;0.00;0.00;;;8.50;99.90;;;;;;4986241;28;20085;-76
2022/01/30 00:10:04;;;;;;;0.00;0.00;;;8.50;99.90;;;;;;4986776;28;20305;-76
2022/01/30 00:12:53;;;;;;;0.00;0.00;;;8.40;99.90;;;;;;4986253;28;20028;-76
2022/01/30 00:15:27;;;;;;;0.00;0.00;;;8.50;99.90;;;;;;4986389;28;20018;-76
2022/01/30 00:18:07;;;;;;;0.00;0.00;;;8.50;99.90;;;;;;4986556;28;20014;-78
2022/01/30 00:20:35;;;;;;;0.00;0.00;;;8.50;99.90;;;;;;4985832;28;20023;-77
2022/01/30 00:23:11;;;;;;;0.00;0.00;;;8.50;99.90;;;;;;4986109;28;20101;-77
2022/01/30 00:25:48;;;;;;;0.00;0.00;;;8.50;99.90;;;;;;4985988;28;20498;-73
2022/01/30 00:28:17;;;;;;;0.00;0.00;;;8.50;99.90;;;;;;4986329;28;20034;-78
2022/01/30 00:30:42;;;;;;;0.00;0.00;;;8.50;99.90;;;;;;4969202;28;20030;-80
2022/01/30 00:33:08;;;;;;;0.00;0.00;;;8.50;99.90;;;;;;4986154;28;20026;-81
2022/01/30 00:35:36;;;;;;;0.00;0.00;;;8.50;99.90;;;;;;4985969;28;20027;-82
2022/01/30 00:38:03;;;;;;;0.00;0.00;;;8.40;99.90;;;;;;4986215;28;20026;-81
2022/01/30 00:40:28;;;;;;;0.00;0.00;;;8.50;99.90;;;;;;4985807;28;20022;-81
2022/01/30 00:42:54;;;;;;;0.00;0.00;;;8.50;99.90;;;;;;4985753;28;20023;-81
2022/01/30 00:45:20;;;;;;;0.00;0.00;;;8.50;99.90;;;;;;4968407;28;20026;-76
2022/01/30 00:47:46;;;;;;;0.00;0.00;;;8.40;99.90;;;;;;4968698;28;20018;-77
2022/01/30 00:50:12;;;;;;;0.00;0.00;;;8.50;99.90;;;;;;4968969;28;20023;-77
2022/01/30 00:52:37;;;;;;;0.00;0.00;;;8.50;99.90;;;;;;4968206;28;20364;-79
2022/01/30 00:55:04;;;;;;;0.00;0.00;;;8.50;99.90;;;;;;4986040;28;20034;-81
2022/01/30 00:57:30;;;;;;;0.00;0.00;;;8.50;99.90;;;;;;4985285;28;20233;-75
2022/01/30 00:59:55;;;;;;;0.00;0.00;;;8.40;99.90;;;;;;4985602;28;20023;-82
2022/01/30 01:02:21;;;;;;;0.00;0.00;;;8.40;99.90;;;;;;4985385;28;20089;-77
2022/01/30 01:04:48;;;;;;;0.00;0.00;;;8.50;99.90;;;;;;4985887;28;20038;-82
2022/01/30 01:07:22;;;;;;;0.00;0.00;;;8.50;99.90;;;;;;4985930;28;20015;-81
2022/01/30 01:10:37;;;;;;;0.00;0.00;;;8.50;99.90;;;;;;4968346;28;20019;-81
2022/01/30 01:12:56;;;;;;;0.00;0.00;;;8.60;99.90;;;;;;4976581;28;20339;-80
2022/01/30 01:23:42;;;;;;;0.00;0.00;;;8.60;99.90;;;;;;4985109;28;20104;-79
2022/01/30 01:26:07;;;;;;;0.00;0.00;;;8.60;99.90;;;;;;4985668;28;20018;-80
2022/01/30 01:28:33;;;;;;;0.00;0.00;;;8.70;99.90;;;;;;4984944;28;20118;-78
2022/01/30 01:31:00;;;;;;;0.00;0.00;;;8.70;99.90;;;;;;4984920;28;20034;-80
2022/01/30 01:33:33;;;;;;;0.00;0.00;;;8.80;99.90;;;;;;4967569;28;20081;-80
2022/01/30 01:35:59;;;;;;;0.00;0.00;;;8.80;99.90;;;;;;4968206;28;20018;-80
2022/01/30 01:38:25;;;;;;;0.00;0.00;;;8.80;99.90;;;;;;4984158;28;20305;-79
2022/01/30 01:40:55;;;;;;;0.00;0.00;;;8.70;99.90;;;;;;4967763;28;20042;-80
2022/01/30 01:43:22;;;;;;;0.00;0.00;;;8.80;99.90;;;;;;4967763;28;20098;-80
2022/01/30 01:45:51;;;;;;;0.00;0.00;;;8.80;99.90;;;;;;4983992;28;20042;-80
2022/01/30 01:48:17;;;;;;;0.00;0.00;;;8.80;99.90;;;;;;4984856;28;20226;-81
2022/01/30 01:50:51;;;;;;;0.00;0.00;;;8.90;99.90;;;;;;4984227;28;20332;-82
2022/01/30 01:53:23;;;;;;;0.00;0.00;;;8.80;99.90;;;;;;4967570;28;20026;-81
2022/01/30 01:55:50;;;;;;;0.00;0.00;;;8.90;99.90;;;;;;4984957;28;20416;-81
2022/01/30 01:58:16;;;;;;;0.00;0.00;;;8.90;99.90;;;;;;4984595;28;20015;-83
2022/01/30 02:00:41;;;;;;;0.00;0.00;;;8.80;99.90;;;;;;4984764;28;20067;-83
2022/01/30 02:03:10;;;;;;;0.00;0.00;;;8.90;99.90;;;;;;4984258;28;20027;-82
2022/01/30 02:05:40;;;;;;;0.00;0.00;;;8.80;99.90;;;;;;4983619;28;20298;-81
2022/01/30 02:14:00;;;;;;;0.00;0.00;;;8.80;99.90;;;;;;4984545;28;20042;-83
2022/01/30 02:27:18;;;;;;;0.00;0.00;;;8.90;99.90;;;;;;4984702;28;20019;-78
2022/01/30 02:29:44;;;;;;;0.00;0.00;;;8.90;99.90;;;;;;4983799;28;20030;-81
2022/01/30 02:32:10;;;;;;;0.00;0.00;;;8.90;99.90;;;;;;4984503;28;20022;-81
2022/01/30 02:34:36;;;;;;;0.00;0.00;;;8.90;99.90;;;;;;4983496;28;20023;-81
2022/01/30 02:37:02;;;;;;;0.00;0.00;;;9.00;99.90;;;;;;4984655;28;20037;-81
2022/01/30 02:39:28;;;;;;;0.00;0.00;;;9.00;99.90;;;;;;4983623;28;20026;-78
2022/01/30 02:41:54;;;;;;;0.00;0.00;;;8.90;99.90;;;;;;4967023;28;20069;-76
2022/01/30 02:46:49;;;;;;;0.00;0.00;;;8.90;99.90;;;;;;4983691;28;20193;-76
2022/01/30 02:51:51;;;;;;;0.00;0.00;;;8.90;99.90;;;;;;4983607;28;20027;-76
2022/01/30 02:54:18;;;;;;;0.00;0.00;;;8.90;99.90;;;;;;4983994;28;20030;-76
2022/01/30 02:56:44;;;;;;;0.00;0.00;;;8.90;99.90;;;;;;4983368;28;20034;-77
2022/01/30 02:59:11;;;;;;;0.00;0.00;;;8.90;99.90;;;;;;4966857;28;20094;-78
2022/01/30 03:01:37;;;;;;;0.00;0.00;;;8.90;99.90;;;;;;4983486;28;20030;-77
2022/01/30 03:04:04;;;;;;;0.00;0.00;;;8.90;99.90;;;;;;4981460;28;20034;-76
2022/01/30 03:06:29;;;;;;;0.00;0.00;;;8.90;99.90;;;;;;4978457;28;20031;-77
2022/01/30 03:08:56;;;;;;;0.00;0.00;;;8.90;99.90;;;;;;4962954;28;20022;-77
2022/01/30 03:11:22;;;;;;;0.00;0.00;;;9.00;99.90;;;;;;4980290;28;20086;-76
2022/01/30 03:13:48;;;;;;;0.00;0.00;;;8.90;99.90;;;;;;4962326;28;20069;-77
2022/01/30 03:16:13;;;;;;;0.00;0.00;;;8.90;99.90;;;;;;4980367;28;20034;-77
2022/01/30 03:18:59;;;;;;;0.00;0.00;;;9.00;99.90;;;;;;4982739;28;20253;-78
2022/01/30 03:21:25;;;;;;;0.00;0.00;;;8.90;99.90;;;;;;4969060;28;20022;-77
2022/01/30 03:23:50;;;;;;;0.00;0.00;;;9.00;99.90;;;;;;4968675;28;20019;-78
2022/01/30 03:26:16;;;;;;;0.00;0.00;;;9.00;99.90;;;;;;4987370;28;20023;-83
2022/01/30 03:28:45;;;;;;;0.00;0.00;;;9.00;99.90;;;;;;4986971;28;20046;-82
2022/01/30 03:31:29;;;;;;;0.00;0.00;;;9.00;99.90;;;;;;4987946;28;20019;-81
2022/01/30 03:33:54;;;;;;;0.00;0.00;;;9.00;99.90;;;;;;4987618;28;20023;-81
2022/01/30 03:36:20;;;;;;;0.00;0.00;;;9.00;99.90;;;;;;4969986;28;20102;-81
2022/01/30 03:38:46;;;;;;;0.00;0.00;;;9.00;99.90;;;;;;4969618;28;20033;-81
2022/01/30 03:41:11;;;;;;;0.00;0.00;;;9.00;99.90;;;;;;4987389;28;20061;-81
2022/01/30 03:43:37;;;;;;;0.00;0.00;;;9.00;99.90;;;;;;4969590;28;20022;-80
2022/01/30 03:46:03;;;;;;;0.00;0.00;;;9.00;99.90;;;;;;4970133;28;20297;-80
2022/01/30 03:48:30;;;;;;;0.00;0.00;;;9.00;99.90;;;;;;4987096;28;20018;-79
2022/01/30 03:50:55;;;;;;;0.00;0.00;;;8.90;99.90;;;;;;4987271;28;20054;-80
2022/01/30 03:53:21;;;;;;;0.00;0.00;;;8.90;99.90;;;;;;4987190;28;20029;-80
2022/01/30 03:55:47;;;;;;;0.00;0.00;;;8.90;99.90;;;;;;4986317;28;20246;-79
2022/01/30 03:58:13;;;;;;;0.00;0.00;;;8.90;99.90;;;;;;4987359;28;20087;-79
2022/01/30 04:00:58;;;;;;;0.00;0.00;;;8.90;99.90;;;;;;4968996;28;20023;-79
2022/01/30 04:03:24;;;;;;;0.00;0.00;;;8.90;99.90;;;;;;4986686;28;20026;-78
2022/01/30 04:05:50;;;;;;;0.00;0.00;;;9.00;99.90;;;;;;4985969;28;20057;-75
2022/01/30 04:08:16;;;;;;;0.00;0.00;;;9.00;99.90;;;;;;4986744;28;20023;-76
2022/01/30 04:10:43;;;;;;;0.00;0.00;;;9.00;99.90;;;;;;4986235;28;20022;-77
2022/01/30 04:13:09;;;;;;;0.00;0.00;;;9.10;99.90;;;;;;4986874;28;20022;-77
2022/01/30 04:15:35;;;;;;;0.00;0.00;;;9.00;99.90;;;;;;4968928;28;20019;-76
2022/01/30 04:18:01;;;;;;;0.00;0.00;;;9.00;99.90;;;;;;4986542;28;20029;-76
2022/01/30 04:20:28;;;;;;;0.00;0.00;;;9.00;99.90;;;;;;4985591;28;20062;-77
2022/01/30 04:22:54;;;;;;;0.00;0.00;;;8.90;99.90;;;;;;4985907;28;20265;-77
2022/01/30 04:25:20;;;;;;;0.00;0.00;;;8.90;99.90;;;;;;4985054;28;20026;-77
2022/01/30 04:27:46;;;;;;;0.00;0.00;;;8.90;99.90;;;;;;4986089;28;20061;-77
2022/01/30 04:30:13;;;;;;;0.00;0.00;;;8.90;99.90;;;;;;4985804;28;20014;-77
2022/01/30 04:32:42;;;;;;;0.00;0.00;;;8.90;99.90;;;;;;4985166;28;20098;-83
2022/01/30 04:35:20;;;;;;;0.00;0.00;;;8.90;99.90;;;;;;4986681;28;20106;-83
2022/01/30 04:59:17;;;;;;;0.00;0.00;;;8.80;99.90;;;;;;4985887;28;20029;-85
2022/01/30 05:09:28;;;;;;;0.00;0.00;;;8.70;99.90;;;;;;4965371;28;20254;-85
2022/01/30 05:11:55;;;;;;;0.00;0.00;;;8.70;99.90;;;;;;4987122;28;20022;-85
2022/01/30 05:14:24;;;;;;;0.00;0.00;;;8.70;99.90;;;;;;4969528;28;20022;-80
2022/01/30 05:16:50;;;;;;;0.00;0.00;;;8.70;99.90;;;;;;4986838;28;20023;-82
2022/01/30 05:19:16;;;;;;;0.00;0.00;;;8.70;99.90;;;;;;4987007;28;20085;-81
2022/01/30 05:21:42;;;;;;;0.00;0.00;;;8.80;99.90;;;;;;4983507;28;20055;-79
2022/01/30 05:24:09;;;;;;;0.00;0.00;;;8.90;99.90;;;;;;4966342;28;20019;-78
2022/01/30 05:26:39;;;;;;;0.00;0.00;;;8.90;99.90;;;;;;4984273;28;20019;-83
2022/01/30 05:29:05;;;;;;;0.00;0.00;;;8.80;99.90;;;;;;4984919;28;20038;-83
2022/01/30 05:31:31;;;;;;;0.00;0.00;;;8.80;99.90;;;;;;4986055;28;20023;-81
2022/01/30 05:33:57;;;;;;;0.00;0.00;;;8.90;99.90;;;;;;4984511;28;20023;-81
2022/01/30 05:36:24;;;;;;;0.00;0.00;;;8.80;99.90;;;;;;4987553;28;20053;-83
2022/01/30 05:38:50;;;;;;;0.00;0.00;;;8.80;99.90;;;;;;4985896;28;20027;-83
2022/01/30 05:41:16;;;;;;;0.00;0.00;;;8.80;99.90;;;;;;4986701;28;20085;-84
2022/01/30 05:43:43;;;;;;;0.00;0.00;;;8.80;99.90;;;;;;4986347;28;20030;-84
2022/01/30 05:46:14;;;;;;;0.00;0.00;;;8.80;99.90;;;;;;4987365;28;20019;-84
2022/01/30 05:48:40;;;;;;;0.00;0.00;;;8.70;99.90;;;;;;4969664;28;20026;-85
2022/01/30 05:51:06;;;;;;;0.00;0.00;;;8.70;99.90;;;;;;4987963;28;20027;-84
2022/01/30 05:53:32;;;;;;;0.00;0.00;;;8.70;99.90;;;;;;4987041;28;20019;-82
2022/01/30 05:55:58;;;;;;;0.00;0.00;;;8.70;99.90;;;;;;4969680;28;20029;-82
2022/01/30 05:58:23;;;;;;;0.00;0.00;;;8.60;99.90;;;;;;4986618;28;20019;-83
2022/01/30 06:00:49;;;;;;;0.00;0.00;;;8.60;99.90;;;;;;4986818;28;20046;-83
2022/01/30 06:03:15;;;;;;;0.00;0.00;;;8.50;99.90;;;;;;4970549;28;20301;-75
2022/01/30 06:05:41;;;;;;;0.00;0.00;;;8.50;99.90;;;;;;4970517;28;20033;-84
2022/01/30 06:08:38;;;;;;;0.00;0.00;;;8.50;99.90;;;;;;4970924;28;20027;-85
2022/01/30 06:11:01;;;;;;;0.00;0.00;;;8.50;99.90;;;;;;4987667;28;20051;-84
2022/01/30 06:13:29;;;;;;;0.00;0.00;;;8.50;99.90;;;;;;4987456;28;20313;-83
2022/01/30 06:15:55;;;;;;;0.00;0.00;;;8.40;99.90;;;;;;4986517;28;20023;-83
2022/01/30 06:18:20;;;;;;;0.00;0.00;;;8.40;99.90;;;;;;4970165;28;20042;-83
2022/01/30 06:20:46;;;;;;;0.00;0.00;;;8.40;99.90;;;;;;4969685;28;20042;-83
2022/01/30 06:23:12;;;;;;;0.00;0.00;;;8.30;99.90;;;;;;4988133;28;20133;-83
2022/01/30 06:25:37;;;;;;;0.00;0.00;;;8.30;99.90;;;;;;4988346;28;20023;-80
2022/01/30 06:28:03;;;;;;;0.00;0.00;;;8.30;99.90;;;;;;4986313;28;20027;-81
2022/01/30 06:30:29;;;;;;;0.00;0.00;;;8.30;99.90;;;;;;4985765;28;20023;-82
2022/01/30 06:32:55;;;;;;;0.00;0.00;;;8.30;99.90;;;;;;4987769;28;20029;-82
2022/01/30 06:35:20;;;;;;;0.00;0.00;;;8.30;99.90;;;;;;4970628;28;20019;-81
2022/01/30 06:37:46;;;;;;;0.00;0.00;;;8.30;99.90;;;;;;4985231;28;20022;-77
2022/01/30 06:40:12;;;;;;;0.00;0.00;;;8.30;99.90;;;;;;4967268;28;20364;-77
2022/01/30 06:42:38;;;;;;;0.00;0.00;;;8.20;99.90;;;;;;4984226;28;20035;-77
2022/01/30 06:45:05;;;;;;;0.00;0.00;;;8.30;99.90;;;;;;4984235;28;20027;-80
2022/01/30 06:47:31;;;;;;;0.00;0.00;;;8.30;99.90;;;;;;4986398;28;20101;-81
2022/01/30 06:49:57;;;;;;;0.00;0.00;;;8.30;99.90;;;;;;4985855;28;20301;-81
2022/01/30 06:52:23;;;;;;;0.00;0.00;;;8.30;99.90;;;;;;4968177;28;20093;-80
2022/01/30 06:54:48;;;;;;;0.00;0.00;;;8.30;99.90;;;;;;4967189;28;20046;-80
2022/01/30 06:57:14;;;;;;;0.00;0.00;;;8.30;99.90;;;;;;4985345;28;20360;-84
2022/01/30 06:59:40;;;;;;;0.00;0.00;;;8.30;99.90;;;;;;4968359;28;20093;-85
2022/01/30 07:02:07;;;;;;;0.00;0.00;;;8.30;99.90;;;;;;4984551;28;20034;-85
2022/01/30 07:07:17;;;;;;;0.00;0.00;;;8.20;99.90;;;;;;4985520;28;20053;-81
2022/01/30 07:09:44;;;;;;;0.00;0.00;;;8.20;99.90;;;;;;4984787;28;20043;-74
2022/01/30 07:12:10;;;;;;;0.00;0.00;;;8.10;99.90;;;;;;4983530;28;20031;-82
2022/01/30 07:14:36;;;;;;;0.00;0.00;;;8.20;99.90;;;;;;4983884;28;20376;-80
2022/01/30 07:17:01;;;;;;;0.00;0.00;;;8.20;99.90;;;;;;4966440;28;20094;-79
2022/01/30 07:19:27;;;;;;;0.00;0.00;;;8.30;99.90;;;;;;4983684;28;20045;-78
2022/01/30 07:21:53;;;;;;;0.00;0.00;;;8.20;99.90;;;;;;4966344;28;20069;-80
2022/01/30 07:24:38;;;;;;;0.00;0.00;;;8.20;99.90;;;;;;4966755;28;20043;-79
2022/01/30 07:27:04;;;;;;;0.00;0.00;;;8.20;99.90;;;;;;4983552;28;20023;-77
2022/01/30 07:29:29;;;;;;;0.00;0.00;;;8.20;99.90;;;;;;4983870;28;20045;-79
2022/01/30 07:31:55;;;;;;;0.00;0.00;;;8.20;99.90;;;;;;4966340;28;20074;-80
2022/01/30 07:34:22;;;;;;;0.00;0.00;;;8.10;99.90;;;;;;4983681;28;20294;-74
2022/01/30 07:36:49;;;;;;;0.00;0.00;;;8.20;99.90;;;;;;4983500;28;20298;-78
2022/01/30 07:39:16;;;;;;;0.00;0.00;;;8.10;99.90;;;;;;4983650;28;20015;-79
2022/01/30 07:41:43;;;;;;;0.00;0.00;;;8.20;99.90;;;;;;4983471;28;20054;-79
2022/01/30 07:44:09;;;;;;;0.00;0.00;;;8.20;99.90;;;;;;4981994;28;20306;-82
2022/01/30 07:46:35;;;;;;;0.00;0.00;;;8.20;99.90;;;;;;4983716;28;20313;-79
2022/01/30 07:49:01;;;;;;;0.00;0.00;;;8.20;99.90;;;;;;4983193;28;20033;-79
2022/01/30 07:51:27;;;;;;;0.00;0.00;;;8.30;99.90;;;;;;4983609;28;20027;-79
2022/01/30 07:53:53;;;;;;;0.00;0.00;;;8.20;99.90;;;;;;4965685;28;20022;-79
2022/01/30 07:56:18;;;;;;;0.00;0.00;;;8.20;99.90;;;;;;4983399;28;20018;-79
2022/01/30 07:58:44;;;;;;;0.00;0.00;;;8.30;99.90;;;;;;4983719;28;20085;-81
2022/01/30 08:01:10;;;;;;;0.00;0.00;;;8.30;99.90;;;;;;4983166;28;20023;-80
2022/01/30 08:03:35;;;;;;;0.00;0.00;;;8.30;99.90;;;;;;4983581;28;20086;-79
2022/01/30 08:06:01;;;;;;;0.00;0.00;;;8.30;99.90;;;;;;4986727;28;20335;-78
2022/01/30 08:08:27;;;;;;;0.00;0.00;;;8.30;99.90;;;;;;4987130;28;20034;-78
2022/01/30 08:10:53;;;;;;;0.00;0.00;;;8.40;99.90;;;;;;4986959;28;20018;-79
2022/01/30 08:13:18;;;;;;;0.00;0.00;;;8.40;99.90;;;;;;4969586;28;20056;-79
2022/01/30 08:15:45;;;;;;;0.00;0.00;;;8.40;99.90;;;;;;4969935;28;20202;-82
2022/01/30 08:18:11;;;;;;;0.00;0.00;;;8.40;99.90;;;;;;4986504;28;20019;-82
2022/01/30 08:20:37;;;;;;;0.00;0.00;;;8.50;99.90;;;;;;4986754;28;20019;-82
2022/01/30 08:23:11;;;;;;;0.00;0.00;;;8.50;99.90;;;;;;4968816;28;20058;-82
2022/01/30 08:25:38;;;;;;;0.00;0.00;;;8.60;99.90;;;;;;4969568;28;20361;-82
2022/01/30 08:28:04;;;;;;;0.00;0.00;;;8.60;99.90;;;;;;4969164;28;20332;-82
2022/01/30 08:30:29;;;;;;;0.00;0.00;;;8.60;99.90;;;;;;4986416;28;20027;-80
2022/01/30 08:32:55;;;;;;;0.00;0.00;;;8.50;99.90;;;;;;4953109;28;20242;-80
2022/01/30 08:35:22;;;;;;;0.00;0.00;;;8.50;99.90;;;;;;4986328;28;20022;-81
2022/01/30 08:37:48;;;;;;;0.00;0.00;;;8.40;99.90;;;;;;4986536;28;20014;-80
2022/01/30 08:40:16;;;;;;;0.00;0.00;;;8.40;99.90;;;;;;4985999;28;20045;-81
2022/01/30 08:42:43;;;;;;;0.00;0.00;;;8.40;99.90;;;;;;4969159;28;20029;-78
2022/01/30 08:45:11;;;;;;;0.00;0.00;;;8.50;99.90;;;;;;4967948;28;20030;-78
2022/01/30 08:47:37;;;;;;;0.00;0.00;;;8.50;99.90;;;;;;4986322;28;20019;-75
2022/01/30 08:50:05;;;;;;;0.00;0.00;;;8.70;99.90;;;;;;4968395;28;20023;-82
2022/01/30 08:52:30;;;;;;;0.00;0.00;;;8.80;99.50;;;;;;4969438;28;20023;-79
2022/01/30 08:54:56;;;;;;;0.00;0.00;;;8.70;98.50;;;;;;4986155;28;20050;-81
2022/01/30 08:57:22;;;;;;;0.00;0.00;;;8.70;98.20;;;;;;4969193;28;20202;-77
2022/01/30 08:59:48;;;;;;;0.00;0.00;;;8.70;97.70;;;;;;4986180;28;20030;-76
2022/01/30 09:02:14;;;;;;;0.00;0.00;;;8.70;99.60;;;;;;4967417;28;20066;-77
2022/01/30 09:04:39;;;;;;;0.00;0.00;;;8.70;96.70;;;;;;4985456;28;20030;-77
2022/01/30 09:07:05;;;;;;;0.00;0.00;;;8.70;98.00;;;;;;4968708;28;20045;-83
2022/01/30 09:09:31;;;;;;;0.00;0.00;;;8.60;98.20;;;;;;4969016;28;20213;-83
2022/01/30 09:12:02;;;;;;;0.00;0.00;;;8.60;97.70;;;;;;4986478;28;20202;-81
2022/01/30 09:14:29;;;;;;;0.00;0.00;;;8.60;96.40;;;;;;4968977;28;20113;-83
2022/01/30 09:16:55;;;;;;;0.00;0.00;;;8.60;96.60;;;;;;4984490;28;20041;-83
2022/01/30 09:22:06;;;;;;;0.00;0.00;;;8.60;96.20;;;;;;4985207;28;20065;-86
2022/01/30 09:24:32;;;;;;;0.00;0.00;;;8.70;97.10;;;;;;4968962;28;20025;-82
2022/01/30 09:26:58;;;;;;;0.00;0.00;;;8.60;96.20;;;;;;4986242;28;20046;-85
2022/01/30 09:29:24;;;;;;;0.00;0.00;;;8.60;95.60;;;;;;4969922;28;20026;-84
2022/01/30 09:31:50;;;;;;;0.00;0.00;;;8.70;95.50;;;;;;4969503;28;20031;-86
2022/01/30 09:34:16;;;;;;;0.00;0.00;;;8.80;95.00;;;;;;4968173;28;20018;-84
2022/01/30 09:36:42;;;;;;;0.00;0.00;;;8.80;94.80;;;;;;4985689;28;20183;-80
2022/01/30 09:39:07;;;;;;;0.00;0.00;;;8.70;94.30;;;;;;4968183;28;20026;-88
2022/01/30 09:41:35;;;;;;;0.00;0.00;;;8.70;95.20;;;;;;4968618;28;20302;-88
2022/01/30 09:44:01;;;;;;;0.00;0.00;;;8.70;95.60;;;;;;4985964;28;20023;-82
2022/01/30 09:46:32;;;;;;;0.00;0.00;;;8.70;94.50;;;;;;4969259;28;20022;-86
2022/01/30 09:48:59;;;;;;;0.00;0.00;;;8.90;97.80;;;;;;4985277;28;20053;-82
2022/01/30 09:51:25;;;;;;;0.00;0.00;;;9.00;95.40;;;;;;4985867;28;20321;-83
2022/01/30 09:53:51;;;;;;;0.00;0.00;;;9.00;95.30;;;;;;4984333;28;20023;-85
2022/01/30 09:56:18;;;;;;;0.00;0.00;;;9.00;96.40;;;;;;4967474;28;20022;-85
2022/01/30 09:58:45;;;;;;;0.00;0.00;;;9.00;95.90;;;;;;4968088;28;20018;-83
2022/01/30 10:01:11;;;;;;;0.00;0.00;;;9.00;96.80;;;;;;4967621;28;20046;-85
2022/01/30 10:03:37;;;;;;;0.00;0.00;;;9.00;96.00;;;;;;4968166;28;20030;-86
2022/01/30 10:06:09;;;;;;;0.00;0.00;;;9.00;95.10;;;;;;4967698;28;20023;-85
2022/01/30 10:08:43;;;;;;;0.00;0.00;;;9.10;93.80;;;;;;4985418;28;20021;-85
2022/01/30 10:11:31;;;;;;;0.00;0.00;;;9.20;94.60;;;;;;4984896;28;20042;-84
2022/01/30 10:14:06;;;;;;;;;;;9.30;96.00;;;;;;4985448;28;20065;-76
2022/01/30 10:16:40;;;;;;;0.00;0.00;;;9.40;94.20;;;;;;4967870;28;20199;-85
2022/01/30 10:19:17;;;;;;;0.00;0.00;;;9.40;92.60;;;;;;4967276;28;20027;-84
2022/01/30 10:21:44;;;;;;;0.00;0.00;;;9.30;93.30;;;;;;4967139;28;20086;-85
2022/01/30 10:24:26;;;;;;;0.00;0.00;;;9.30;92.60;;;;;;4984318;28;20023;-87
2022/01/30 10:26:57;;;;;;;0.00;0.00;;;9.30;96.20;;;;;;4967295;28;20029;-87
2022/01/30 10:29:25;;;;;;;0.00;0.00;;;9.30;93.60;;;;;;4985208;28;20027;-87
2022/01/30 10:32:06;;;;;;;0.00;0.00;;;9.60;93.70;;;;;;4985286;28;20019;-86
2022/01/30 10:34:34;;;;;;;0.00;0.00;;;9.40;92.10;;;;;;4967664;28;20029;-86
2022/01/30 10:37:14;;;;;;;0.00;0.00;;;9.30;92.00;;;;;;4984486;28;20022;-81
2022/01/30 10:40:27;;;;;;;0.00;0.00;;;9.20;92.40;;;;;;4967539;28;20084;-85
2022/01/30 10:42:53;;;;;;;0.00;0.00;;;9.10;92.80;;;;;;4984629;28;20026;-86
2022/01/30 10:45:19;;;;;;;0.00;0.00;;;9.00;91.90;;;;;;4984118;28;20407;-82
2022/01/30 10:47:45;;;;;;;0.00;0.00;;;9.10;91.40;;;;;;4984595;28;20214;-86
2022/01/30 10:50:19;;;;;;;0.00;0.00;;;9.00;93.70;;;;;;4967088;28;20182;-85
2022/01/30 10:52:59;;;;;;;0.00;0.00;;;9.00;93.00;;;;;;4984592;28;20029;-86
2022/01/30 10:55:44;;;;;;;0.00;0.00;;;9.10;92.70;;;;;;4984901;28;20078;-82
2022/01/30 10:58:16;;;;;;;0.00;0.00;;;9.10;91.40;;;;;;4966459;28;20019;-80
2022/01/30 11:00:54;;;;;;;0.00;0.00;;;9.10;92.70;;;;;;4984197;28;20030;-83
2022/01/30 11:03:35;;;;;;;0.00;0.00;;;9.20;92.20;;;;;;4982333;28;20027;-78
2022/01/30 11:06:19;;;;;;;0.00;0.00;;;9.10;92.70;;;;;;4966898;28;20053;-83
2022/01/30 11:08:48;;;;;;;0.00;0.00;;;9.10;90.40;;;;;;4966995;28;20294;-82
2022/01/30 11:14:01;;;;;;;;;;;9.10;90.10;;;;;;4984502;28;20019;-82
2022/01/30 11:19:13;;;;;;;0.00;0.00;;;9.00;90.70;;;;;;4983471;28;20026;-82
2022/01/30 11:21:40;;;;;;;0.00;0.00;;;9.00;89.70;;;;;;4966697;28;20054;-83
2022/01/30 11:24:08;;;;;;;0.00;0.00;;;9.10;90.20;;;;;;4966561;28;20246;-77
2022/01/30 11:26:33;;;;;;;0.00;0.00;;;9.00;90.50;;;;;;4966942;28;20062;-82
2022/01/30 11:28:59;;;;;;;0.00;0.00;;;9.00;89.20;;;;;;4966430;28;20027;-83
2022/01/30 11:31:25;;;;;;;0.00;0.00;;;9.00;91.00;;;;;;4966285;28;20018;-83
2022/01/30 11:33:52;;;;;;;0.00;0.00;;;8.90;90.00;;;;;;4966982;28;20190;-83
2022/01/30 11:36:21;;;;;;;0.00;0.00;;;8.90;90.10;;;;;;4966307;28;20364;-85
2022/01/30 11:38:48;;;;;;;0.00;0.00;;;9.20;93.40;;;;;;4984939;28;20027;-83
2022/01/30 11:41:16;;;;;;;0.00;0.00;;;9.10;89.00;;;;;;4986571;28;20047;-83
2022/01/30 11:44:17;;;;;;;0.00;0.00;;;9.00;88.20;;;;;;4987484;28;20050;-83
2022/01/30 11:47:04;;;;;;;0.00;0.00;;;8.90;90.10;;;;;;4970450;28;20027;-83
2022/01/30 11:49:41;;;;;;;0.00;0.00;;;8.90;90.50;;;;;;4972529;28;20042;-84
2022/01/30 11:52:12;;;;;;;0.00;0.00;;;8.80;90.70;;;;;;4969595;28;20022;-74
2022/01/30 11:54:40;;;;;;;0.00;0.00;;;8.80;90.40;;;;;;4987720;28;20018;-75
2022/01/30 11:57:21;;;;;;;0.00;0.00;;;8.90;89.20;;;;;;4987392;28;20298;-77
2022/01/30 11:59:50;;;;;;;0.00;0.00;;;8.90;87.80;;;;;;4970462;28;20023;-86
2022/01/30 12:02:27;;;;;;;0.00;0.00;;;8.90;89.30;;;;;;4987032;28;20035;-77
2022/01/30 12:04:56;;;;;;;0.00;0.00;;;8.80;91.40;;;;;;4970046;28;20047;-77
2022/01/30 12:07:37;;;;;;;0.00;0.00;;;8.80;91.00;;;;;;4969260;28;20050;-76
2022/01/30 12:10:21;;;;;;;0.00;0.00;;;8.90;89.90;;;;;;4987161;28;20089;-74
2022/01/30 12:12:59;;;;;;;0.00;0.00;;;8.80;91.50;;;;;;4969757;28;20360;-74
2022/01/30 12:15:39;;;;;;;0.00;0.00;;;8.90;91.50;;;;;;4986192;28;20038;-81
2022/01/30 12:18:09;;;;;;;0.00;0.00;;;8.90;91.20;;;;;;4986825;28;20368;-83
2022/01/30 12:20:59;;;;;;;0.00;0.00;;;9.00;89.70;;;;;;4969576;28;20023;-77
2022/01/30 12:23:30;;;;;;;0.00;0.00;;;9.00;91.10;;;;;;4986133;28;20070;-77
2022/01/30 12:26:04;;;;;;;0.00;0.00;;;9.00;90.90;;;;;;4969746;28;20098;-78
2022/01/30 12:28:49;;;;;;;0.00;0.00;;;9.20;92.90;;;;;;4968621;28;20036;-79
2022/01/30 12:31:32;;;;;;;0.00;0.00;;;9.30;92.20;;;;;;4968701;28;20042;-75
2022/01/30 12:34:06;;;;;;;0.00;0.00;;;9.40;90.70;;;;;;4987067;28;20014;-80
2022/01/30 12:36:38;;;;;;;0.00;0.00;;;9.40;91.50;;;;;;4966494;28;20018;-85
2022/01/30 12:39:08;;;;;;;0.00;0.00;;;9.30;90.60;;;;;;4971259;28;20301;-89
2022/01/30 12:41:36;;;;;;;0.00;0.00;;;9.30;90.20;;;;;;4971160;28;20042;-83
2022/01/30 12:44:05;;;;;;;0.00;0.00;;;9.20;89.70;;;;;;4986121;28;20081;-77
2022/01/30 12:46:45;;;;;;;0.00;0.00;;;9.20;90.90;;;;;;4968822;28;20099;-80
2022/01/30 12:49:20;;;;;;;0.00;0.00;;;9.10;90.10;;;;;;4985791;28;20298;-76
2022/01/30 12:51:51;;;;;;;0.00;0.00;;;9.00;90.60;;;;;;4986670;28;20030;-83
2022/01/30 12:54:23;;;;;;;0.00;0.00;;;9.00;91.70;;;;;;4986030;28;20015;-83
2022/01/30 12:56:50;;;;;;;0.00;0.00;;;8.90;90.30;;;;;;4986583;28;20019;-84
2022/01/30 12:59:17;;;;;;;0.00;0.00;;;8.90;89.40;;;;;;4984822;28;20045;-83
2022/01/30 13:01:46;;;;;;;0.00;0.00;;;8.90;90.20;;;;;;4986209;28;20031;-83
2022/01/30 13:04:12;;;;;;;;;;;8.90;90.60;;;;;;4986059;28;20078;-72
2022/01/30 13:06:42;;;;;;;0.00;0.00;;;8.90;91.20;;;;;;4983784;28;19909;-80
2022/01/30 13:09:09;;;;;;;0.00;0.00;;;8.80;90.20;;;;;;4983473;28;20025;-78
2022/01/30 13:11:35;;;;;;;0.00;0.00;;;8.80;90.20;;;;;;4982614;28;20026;-80
2022/01/30 13:14:05;;;;;;;0.00;0.00;;;8.90;92.50;;;;;;4965628;28;20093;-80
2022/01/30 13:16:36;;;;;;;0.00;0.00;;;8.80;91.70;;;;;;4964647;28;20212;-78
2022/01/30 13:19:06;;;;;;;0.00;0.00;;;8.80;91.90;;;;;;4965151;28;20022;-77
2022/01/30 13:21:35;;;;;;;0.00;0.00;;;8.90;91.40;;;;;;4964345;28;20046;-82
2022/01/30 13:24:02;;;;;;;0.00;0.00;;;8.80;91.50;;;;;;4982491;28;20125;-82
2022/01/30 13:26:32;;;;;;;0.00;0.00;;;8.80;91.10;;;;;;4964482;28;20027;-79
2022/01/30 13:29:00;;;;;;;0.00;0.00;;;8.80;92.00;;;;;;4965008;28;20026;-77
2022/01/30 13:31:26;;;;;;;0.00;0.00;;;8.80;90.00;;;;;;4981592;28;20201;-79
2022/01/30 13:34:13;;;;;;;0.00;0.00;;;8.80;91.00;;;;;;4964814;28;20027;-82
2022/01/30 13:36:40;;;;;;;0.00;0.00;;;8.80;91.90;;;;;;4964757;28;20042;-82
2022/01/30 13:39:14;;;;;;;0.00;0.00;;;8.70;91.60;;;;;;4964892;28;20029;-80
2022/01/30 13:42:01;;;;;;;0.00;0.00;;;8.70;92.30;;;;;;4965163;28;20039;-89
2022/01/30 13:44:38;;;;;;;0.00;0.00;;;8.70;90.80;;;;;;4964833;28;20050;-80
2022/01/30 13:47:05;;;;;;;0.00;0.00;;;8.70;91.20;;;;;;4981597;28;20023;-87
2022/01/30 13:49:43;;;;;;;0.00;0.00;;;8.70;91.60;;;;;;4965238;28;20086;-87
2022/01/30 13:52:10;;;;;;;0.00;0.00;;;8.70;91.60;;;;;;4981860;28;20324;-76
2022/01/30 13:54:37;;;;;;;0.00;0.00;;;8.70;90.80;;;;;;4980569;28;20023;-83
2022/01/30 13:57:09;;;;;;;0.00;0.00;;;8.60;89.80;;;;;;4964444;28;20030;-79
2022/01/30 13:59:35;;;;;;;0.00;0.00;;;8.50;91.30;;;;;;4963978;28;20026;-82
2022/01/30 14:02:04;;;;;;;0.00;0.00;;;8.60;91.50;;;;;;4980961;28;20041;-81
2022/01/30 14:04:38;;;;;;;;;;;8.60;87.30;;;;;;4964140;28;20246;-83
2022/01/30 14:07:24;;;;;;;0.00;0.00;;;8.60;90.30;;;;;;4981680;28;19902;-82
2022/01/30 14:09:52;;;;;;;0.00;0.00;;;8.50;91.10;;;;;;4981269;28;20032;-75
2022/01/30 14:12:18;;;;;;;0.00;0.00;;;8.50;91.00;;;;;;4980815;28;20027;-74
2022/01/30 14:15:02;;;;;;;0.00;0.00;;;8.50;91.20;;;;;;4981453;28;20086;-75
2022/01/30 14:17:28;;;;;;;0.00;0.00;;;8.50;91.30;;;;;;4980200;28;20019;-76